sensor_id;sensor_type;location;lat;lon;timestamp;pressure;altitude;pressure_sealevel;temperature;humidity
83488;BME280;73424;49.994;8.184;2024-02-21T00:01:26;100929.50;;;8.37;81.04
83488;BME280;73424;49.994;8.184;2024-02-21T00:03:52;100903.88;;;8.28;80.70
83488;BME280;73424;49.994;8.184;2024-02-21T00:06:17;100911.88;;;8.36;80.66
83488;BME280;73424;49.994;8.184;2024-02-21T00:08:42;100895.84;;;8.20;80.93
83488;BME280;73424;49.994;8.184;2024-02-21T00:11:08;100896.19;;;8.25;80.77
83488;BME280;73424;49.994;8.184;2024-02-21T00:13:33;100896.75;;;8.37;80.50
83488;BME280;73424;49.994;8.184;2024-02-21T00:16:00;100879.56;;;8.23;79.95
83488;BME280;73424;49.994;8.184;2024-02-21T00:18:25;100842.66;;;8.12;80.33
83488;BME280;73424;49.994;8.184;2024-02-21T00:20:50;100893.59;;;8.41;81.08
83488;BME280;73424;49.994;8.184;2024-02-21T00:23:16;100866.66;;;8.28;80.56
83488;BME280;73424;49.994;8.184;2024-02-21T00:25:41;100856.59;;;8.06;81.36
83488;BME280;73424;49.994;8.184;2024-02-21T00:28:06;100881.56;;;8.21;81.62
83488;BME280;73424;49.994;8.184;2024-02-21T00:30:31;100841.97;;;7.94;81.37
83488;BME280;73424;49.994;8.184;2024-02-21T00:32:57;100855.13;;;8.11;81.48
83488;BME280;73424;49.994;8.184;2024-02-21T00:35:22;100856.63;;;8.14;81.63
83488;BME280;73424;49.994;8.184;2024-02-21T00:37:48;100859.31;;;8.22;81.98
83488;BME280;73424;49.994;8.184;2024-02-21T00:40:13;100812.41;;;7.97;81.69
83488;BME280;73424;49.994;8.184;2024-02-21T00:42:41;100837.03;;;8.15;81.30
83488;BME280;73424;49.994;8.184;2024-02-21T00:45:07;100802.94;;;8.02;81.53
83488;BME280;73424;49.994;8.184;2024-02-21T00:47:33;100833.34;;;8.08;81.79
83488;BME280;73424;49.994;8.184;2024-02-21T00:49:58;100825.06;;;8.11;81.71
83488;BME280;73424;49.994;8.184;2024-02-21T00:52:24;100804.25;;;7.98;81.42
83488;BME280;73424;49.994;8.184;2024-02-21T00:54:49;100821.41;;;8.04;81.88
83488;BME280;73424;49.994;8.184;2024-02-21T00:57:14;100830.88;;;8.14;81.61
83488;BME280;73424;49.994;8.184;2024-02-21T00:59:40;100848.81;;;8.20;80.87
83488;BME280;73424;49.994;8.184;2024-02-21T01:02:06;100807.28;;;8.03;80.84
83488;BME280;73424;49.994;8.184;2024-02-21T01:04:32;100798.97;;;8.06;81.69
83488;BME280;73424;49.994;8.184;2024-02-21T01:06:57;100822.25;;;8.20;80.93
83488;BME280;73424;49.994;8.184;2024-02-21T01:09:23;100847.03;;;8.29;80.83
83488;BME280;73424;49.994;8.184;2024-02-21T01:11:48;100838.38;;;8.27;81.29
83488;BME280;73424;49.994;8.184;2024-02-21T01:14:14;100829.00;;;7.99;81.20
83488;BME280;73424;49.994;8.184;2024-02-21T01:16:39;100827.53;;;8.04;81.48
83488;BME280;73424;49.994;8.184;2024-02-21T01:19:04;100854.00;;;8.22;80.76
83488;BME280;73424;49.994;8.184;2024-02-21T01:21:29;100850.06;;;8.34;80.77
83488;BME280;73424;49.994;8.184;2024-02-21T01:23:55;100821.91;;;8.23;79.78
83488;BME280;73424;49.994;8.184;2024-02-21T01:26:20;100806.78;;;8.08;79.36
83488;BME280;73424;49.994;8.184;2024-02-21T01:28:45;100841.03;;;8.27;79.53
83488;BME280;73424;49.994;8.184;2024-02-21T01:31:11;100840.41;;;8.33;79.70
83488;BME280;73424;49.994;8.184;2024-02-21T01:33:38;100797.31;;;7.97;80.26
83488;BME280;73424;49.994;8.184;2024-02-21T01:36:04;100825.41;;;8.24;80.01
83488;BME280;73424;49.994;8.184;2024-02-21T01:38:32;100813.28;;;8.21;79.90
83488;BME280;73424;49.994;8.184;2024-02-21T01:40:57;100785.00;;;7.96;79.74
83488;BME280;73424;49.994;8.184;2024-02-21T01:43:24;100811.63;;;8.12;80.25
83488;BME280;73424;49.994;8.184;2024-02-21T01:45:54;100814.47;;;8.19;79.98
83488;BME280;73424;49.994;8.184;2024-02-21T01:48:21;100797.44;;;7.96;80.27
83488;BME280;73424;49.994;8.184;2024-02-21T01:50:49;100804.75;;;7.94;80.89
83488;BME280;73424;49.994;8.184;2024-02-21T01:53:17;100806.59;;;8.01;80.23
83488;BME280;73424;49.994;8.184;2024-02-21T01:55:47;100772.19;;;7.84;80.13
83488;BME280;73424;49.994;8.184;2024-02-21T01:58:13;100794.28;;;7.92;80.54
83488;BME280;73424;49.994;8.184;2024-02-21T02:00:42;100762.22;;;7.78;80.13
83488;BME280;73424;49.994;8.184;2024-02-21T02:03:10;100761.69;;;7.66;80.95
83488;BME280;73424;49.994;8.184;2024-02-21T02:05:42;100785.13;;;7.79;80.72
83488;BME280;73424;49.994;8.184;2024-02-21T02:08:08;100751.53;;;7.53;81.04
83488;BME280;73424;49.994;8.184;2024-02-21T02:10:33;100790.41;;;7.71;80.63
83488;BME280;73424;49.994;8.184;2024-02-21T02:12:58;100775.50;;;7.70;81.23
83488;BME280;73424;49.994;8.184;2024-02-21T02:15:24;100786.44;;;7.66;80.43
83488;BME280;73424;49.994;8.184;2024-02-21T02:17:49;100767.84;;;7.66;80.43
83488;BME280;73424;49.994;8.184;2024-02-21T02:20:15;100741.91;;;7.52;81.10
83488;BME280;73424;49.994;8.184;2024-02-21T02:22:43;100769.16;;;7.62;80.56
83488;BME280;73424;49.994;8.184;2024-02-21T02:25:08;100766.16;;;7.57;81.22
83488;BME280;73424;49.994;8.184;2024-02-21T02:27:41;100751.41;;;7.63;81.23
83488;BME280;73424;49.994;8.184;2024-02-21T02:30:07;100726.94;;;7.43;81.20
83488;BME280;73424;49.994;8.184;2024-02-21T02:32:32;100773.13;;;7.58;81.59
83488;BME280;73424;49.994;8.184;2024-02-21T02:34:58;100746.56;;;7.58;81.93
83488;BME280;73424;49.994;8.184;2024-02-21T02:37:23;100738.06;;;7.47;82.06
83488;BME280;73424;49.994;8.184;2024-02-21T02:39:48;100733.59;;;7.55;81.31
83488;BME280;73424;49.994;8.184;2024-02-21T02:42:14;100724.94;;;7.37;81.68
83488;BME280;73424;49.994;8.184;2024-02-21T02:44:39;100728.94;;;7.41;82.48
83488;BME280;73424;49.994;8.184;2024-02-21T02:47:04;100722.56;;;7.18;82.08
83488;BME280;73424;49.994;8.184;2024-02-21T02:49:30;100751.00;;;7.34;83.00
83488;BME280;73424;49.994;8.184;2024-02-21T02:51:55;100740.72;;;7.39;82.32
83488;BME280;73424;49.994;8.184;2024-02-21T02:54:20;100728.28;;;7.39;83.03
83488;BME280;73424;49.994;8.184;2024-02-21T02:56:46;100699.00;;;7.23;83.08
83488;BME280;73424;49.994;8.184;2024-02-21T02:59:11;100643.84;;;6.93;82.21
83488;BME280;73424;49.994;8.184;2024-02-21T03:01:37;100741.53;;;7.39;83.49
83488;BME280;73424;49.994;8.184;2024-02-21T03:04:03;100709.56;;;7.07;83.35
83488;BME280;73424;49.994;8.184;2024-02-21T03:06:28;100734.50;;;7.22;83.98
83488;BME280;73424;49.994;8.184;2024-02-21T03:08:54;100735.97;;;7.17;83.96
83488;BME280;73424;49.994;8.184;2024-02-21T03:11:20;100695.81;;;7.11;83.44
83488;BME280;73424;49.994;8.184;2024-02-21T03:13:46;100604.94;;;6.60;84.05
83488;BME280;73424;49.994;8.184;2024-02-21T03:16:11;100698.34;;;7.21;83.18
83488;BME280;73424;49.994;8.184;2024-02-21T03:18:36;100711.69;;;7.45;82.38
83488;BME280;73424;49.994;8.184;2024-02-21T03:21:02;100689.44;;;7.46;82.36
83488;BME280;73424;49.994;8.184;2024-02-21T03:23:27;100708.75;;;7.64;82.22
83488;BME280;73424;49.994;8.184;2024-02-21T03:25:52;100686.69;;;7.64;82.46
83488;BME280;73424;49.994;8.184;2024-02-21T03:28:18;100685.84;;;7.72;82.13
83488;BME280;73424;49.994;8.184;2024-02-21T03:30:43;100642.16;;;7.42;82.19
83488;BME280;73424;49.994;8.184;2024-02-21T03:33:09;100684.38;;;7.77;82.56
83488;BME280;73424;49.994;8.184;2024-02-21T03:35:34;100671.22;;;7.59;82.50
83488;BME280;73424;49.994;8.184;2024-02-21T03:37:59;100692.50;;;7.76;82.29
83488;BME280;73424;49.994;8.184;2024-02-21T03:40:24;100635.22;;;7.57;81.99
83488;BME280;73424;49.994;8.184;2024-02-21T03:42:50;100666.25;;;7.64;82.88
83488;BME280;73424;49.994;8.184;2024-02-21T03:45:15;100658.28;;;7.56;83.20
83488;BME280;73424;49.994;8.184;2024-02-21T03:47:40;100693.31;;;7.68;82.91
83488;BME280;73424;49.994;8.184;2024-02-21T03:50:06;100670.72;;;7.56;83.39
83488;BME280;73424;49.994;8.184;2024-02-21T03:52:32;100642.00;;;7.43;83.26
83488;BME280;73424;49.994;8.184;2024-02-21T03:54:57;100686.22;;;7.77;82.78
83488;BME280;73424;49.994;8.184;2024-02-21T03:57:22;100697.97;;;7.74;82.93
83488;BME280;73424;49.994;8.184;2024-02-21T03:59:50;100694.34;;;7.91;82.85
83488;BME280;73424;49.994;8.184;2024-02-21T04:02:17;100700.50;;;8.00;82.50
83488;BME280;73424;49.994;8.184;2024-02-21T04:04:43;100674.59;;;7.86;82.11
83488;BME280;73424;49.994;8.184;2024-02-21T04:07:12;100662.97;;;7.79;82.59
83488;BME280;73424;49.994;8.184;2024-02-21T04:09:37;100666.94;;;7.75;83.01
83488;BME280;73424;49.994;8.184;2024-02-21T04:12:03;100677.91;;;7.88;82.94
83488;BME280;73424;49.994;8.184;2024-02-21T04:14:28;100661.97;;;7.88;83.03
83488;BME280;73424;49.994;8.184;2024-02-21T04:16:53;100660.47;;;7.77;83.08
83488;BME280;73424;49.994;8.184;2024-02-21T04:19:19;100652.97;;;7.56;83.15
83488;BME280;73424;49.994;8.184;2024-02-21T04:21:44;100644.69;;;7.51;83.57
83488;BME280;73424;49.994;8.184;2024-02-21T04:24:10;100631.69;;;7.32;83.53
83488;BME280;73424;49.994;8.184;2024-02-21T04:26:35;100643.81;;;7.35;83.69
83488;BME280;73424;49.994;8.184;2024-02-21T04:29:00;100660.25;;;7.38;84.03
83488;BME280;73424;49.994;8.184;2024-02-21T04:31:26;100667.72;;;7.43;84.60
83488;BME280;73424;49.994;8.184;2024-02-21T04:33:51;100642.31;;;7.32;84.36
83488;BME280;73424;49.994;8.184;2024-02-21T04:36:16;100603.16;;;7.26;83.84
83488;BME280;73424;49.994;8.184;2024-02-21T04:38:41;100604.84;;;7.27;83.58
83488;BME280;73424;49.994;8.184;2024-02-21T04:41:07;100635.03;;;7.42;84.45
83488;BME280;73424;49.994;8.184;2024-02-21T04:43:33;100559.31;;;6.90;83.63
83488;BME280;73424;49.994;8.184;2024-02-21T04:45:58;100640.97;;;7.28;84.34
83488;BME280;73424;49.994;8.184;2024-02-21T04:48:23;100602.19;;;7.27;83.09
83488;BME280;73424;49.994;8.184;2024-02-21T04:50:49;100636.69;;;7.27;83.38
83488;BME280;73424;49.994;8.184;2024-02-21T04:53:14;100624.56;;;7.25;83.11
83488;BME280;73424;49.994;8.184;2024-02-21T04:55:39;100594.31;;;7.01;83.28
83488;BME280;73424;49.994;8.184;2024-02-21T04:58:05;100620.03;;;7.09;83.45
83488;BME280;73424;49.994;8.184;2024-02-21T05:00:30;100608.72;;;6.91;83.44
83488;BME280;73424;49.994;8.184;2024-02-21T05:02:55;100613.38;;;6.97;84.41
83488;BME280;73424;49.994;8.184;2024-02-21T05:05:21;100608.34;;;6.78;84.25
83488;BME280;73424;49.994;8.184;2024-02-21T05:07:46;100599.53;;;6.69;84.23
83488;BME280;73424;49.994;8.184;2024-02-21T05:10:11;100609.31;;;6.77;84.52
83488;BME280;73424;49.994;8.184;2024-02-21T05:12:37;100613.09;;;6.66;84.97
83488;BME280;73424;49.994;8.184;2024-02-21T05:15:03;100621.50;;;6.62;85.88
83488;BME280;73424;49.994;8.184;2024-02-21T05:17:29;100632.66;;;6.73;86.19
83488;BME280;73424;49.994;8.184;2024-02-21T05:19:54;100609.94;;;6.63;85.90
83488;BME280;73424;49.994;8.184;2024-02-21T05:22:20;100631.84;;;6.73;85.58
83488;BME280;73424;49.994;8.184;2024-02-21T05:24:45;100629.38;;;6.79;85.52
83488;BME280;73424;49.994;8.184;2024-02-21T05:27:10;100544.13;;;6.24;85.39
83488;BME280;73424;49.994;8.184;2024-02-21T05:29:36;100597.69;;;6.70;84.96
83488;BME280;73424;49.994;8.184;2024-02-21T05:32:01;100577.75;;;6.57;85.59
83488;BME280;73424;49.994;8.184;2024-02-21T05:34:27;100578.06;;;6.54;85.24
83488;BME280;73424;49.994;8.184;2024-02-21T05:36:52;100584.56;;;6.60;85.79
83488;BME280;73424;49.994;8.184;2024-02-21T05:39:18;100577.09;;;6.55;85.77
83488;BME280;73424;49.994;8.184;2024-02-21T05:41:44;100578.75;;;6.56;85.99
83488;BME280;73424;49.994;8.184;2024-02-21T05:44:10;100522.59;;;6.19;85.13
83488;BME280;73424;49.994;8.184;2024-02-21T05:46:36;100572.41;;;6.49;86.34
83488;BME280;73424;49.994;8.184;2024-02-21T05:49:01;100586.34;;;6.51;85.42
83488;BME280;73424;49.994;8.184;2024-02-21T05:51:26;100559.78;;;6.35;85.60
83488;BME280;73424;49.994;8.184;2024-02-21T05:53:52;100577.84;;;6.40;85.68
83488;BME280;73424;49.994;8.184;2024-02-21T05:56:17;100613.56;;;6.62;85.94
83488;BME280;73424;49.994;8.184;2024-02-21T05:58:43;100603.78;;;6.62;85.18
83488;BME280;73424;49.994;8.184;2024-02-21T06:01:09;100601.03;;;6.72;84.68
83488;BME280;73424;49.994;8.184;2024-02-21T06:03:34;100565.00;;;6.61;83.60
83488;BME280;73424;49.994;8.184;2024-02-21T06:06:01;100550.56;;;6.55;83.69
83488;BME280;73424;49.994;8.184;2024-02-21T06:08:27;100590.25;;;6.73;83.67
83488;BME280;73424;49.994;8.184;2024-02-21T06:10:52;100587.72;;;6.64;83.57
83488;BME280;73424;49.994;8.184;2024-02-21T06:13:28;100552.06;;;6.50;83.47
83488;BME280;73424;49.994;8.184;2024-02-21T06:15:54;100605.03;;;6.76;83.21
83488;BME280;73424;49.994;8.184;2024-02-21T06:18:20;100581.31;;;6.82;83.50
83488;BME280;73424;49.994;8.184;2024-02-21T06:20:46;100596.78;;;6.95;83.19
83488;BME280;73424;49.994;8.184;2024-02-21T06:23:12;100588.16;;;7.01;82.10
83488;BME280;73424;49.994;8.184;2024-02-21T06:25:38;100576.13;;;7.15;82.34
83488;BME280;73424;49.994;8.184;2024-02-21T06:28:04;100586.72;;;7.15;81.47
83488;BME280;73424;49.994;8.184;2024-02-21T06:30:29;100574.13;;;7.08;81.51
83488;BME280;73424;49.994;8.184;2024-02-21T06:32:54;100556.06;;;7.12;81.01
83488;BME280;73424;49.994;8.184;2024-02-21T06:35:21;100533.16;;;7.03;80.79
83488;BME280;73424;49.994;8.184;2024-02-21T06:37:46;100543.25;;;7.16;81.12
83488;BME280;73424;49.994;8.184;2024-02-21T06:40:16;100557.22;;;7.18;81.07
83488;BME280;73424;49.994;8.184;2024-02-21T06:42:41;100550.56;;;7.13;81.71
83488;BME280;73424;49.994;8.184;2024-02-21T06:45:06;100527.16;;;6.93;81.05
83488;BME280;73424;49.994;8.184;2024-02-21T06:47:32;100542.59;;;7.13;80.99
83488;BME280;73424;49.994;8.184;2024-02-21T06:49:57;100526.50;;;6.99;80.90
83488;BME280;73424;49.994;8.184;2024-02-21T06:52:22;100534.13;;;7.10;80.84
83488;BME280;73424;49.994;8.184;2024-02-21T06:54:49;100529.84;;;7.09;80.83
83488;BME280;73424;49.994;8.184;2024-02-21T06:57:14;100566.69;;;7.36;80.54
83488;BME280;73424;49.994;8.184;2024-02-21T06:59:40;100504.16;;;7.18;79.67
83488;BME280;73424;49.994;8.184;2024-02-21T07:02:06;100534.00;;;7.36;79.37
83488;BME280;73424;49.994;8.184;2024-02-21T07:04:31;100559.06;;;7.65;78.41
83488;BME280;73424;49.994;8.184;2024-02-21T07:07:01;100565.53;;;7.55;79.15
83488;BME280;73424;49.994;8.184;2024-02-21T07:10:01;100539.81;;;7.39;79.18
83488;BME280;73424;49.994;8.184;2024-02-21T07:12:33;100538.81;;;7.40;78.79
83488;BME280;73424;49.994;8.184;2024-02-21T07:15:02;100496.69;;;7.45;77.98
83488;BME280;73424;49.994;8.184;2024-02-21T07:17:28;100561.38;;;7.85;77.52
83488;BME280;73424;49.994;8.184;2024-02-21T07:19:59;100522.56;;;7.51;76.94
83488;BME280;73424;49.994;8.184;2024-02-21T07:22:25;100546.75;;;7.64;77.60
83488;BME280;73424;49.994;8.184;2024-02-21T07:24:50;100541.13;;;7.59;77.65
83488;BME280;73424;49.994;8.184;2024-02-21T07:27:16;100558.88;;;7.83;77.28
83488;BME280;73424;49.994;8.184;2024-02-21T07:29:41;100519.19;;;7.74;76.43
83488;BME280;73424;49.994;8.184;2024-02-21T07:32:07;100555.22;;;7.84;76.77
83488;BME280;73424;49.994;8.184;2024-02-21T07:34:32;100548.75;;;7.71;77.25
83488;BME280;73424;49.994;8.184;2024-02-21T07:36:58;100543.59;;;7.77;77.28
83488;BME280;73424;49.994;8.184;2024-02-21T07:39:23;100529.81;;;7.82;76.85
83488;BME280;73424;49.994;8.184;2024-02-21T07:42:14;100553.22;;;7.86;77.74
83488;BME280;73424;49.994;8.184;2024-02-21T07:44:42;100558.69;;;7.93;76.81
83488;BME280;73424;49.994;8.184;2024-02-21T07:47:07;100543.78;;;7.92;76.63
83488;BME280;73424;49.994;8.184;2024-02-21T07:49:33;100542.91;;;7.99;77.20
83488;BME280;73424;49.994;8.184;2024-02-21T07:52:00;100536.06;;;8.05;75.68
83488;BME280;73424;49.994;8.184;2024-02-21T07:54:26;100548.03;;;8.09;76.83
83488;BME280;73424;49.994;8.184;2024-02-21T07:56:51;100497.63;;;7.85;76.00
83488;BME280;73424;49.994;8.184;2024-02-21T07:59:16;100545.03;;;8.12;76.17
83488;BME280;73424;49.994;8.184;2024-02-21T08:01:42;100532.59;;;8.04;75.41
83488;BME280;73424;49.994;8.184;2024-02-21T08:04:08;100500.94;;;7.95;76.30
83488;BME280;73424;49.994;8.184;2024-02-21T08:06:34;100537.22;;;8.10;76.21
83488;BME280;73424;49.994;8.184;2024-02-21T08:08:59;100503.94;;;7.76;76.42
83488;BME280;73424;49.994;8.184;2024-02-21T08:11:25;100471.13;;;7.60;76.68
83488;BME280;73424;49.994;8.184;2024-02-21T08:13:50;100505.28;;;7.80;76.05
83488;BME280;73424;49.994;8.184;2024-02-21T08:16:16;100442.75;;;7.53;76.07
83488;BME280;73424;49.994;8.184;2024-02-21T08:18:44;100481.47;;;8.02;75.22
83488;BME280;73424;49.994;8.184;2024-02-21T08:21:09;100492.28;;;8.01;75.86
83488;BME280;73424;49.994;8.184;2024-02-21T08:23:34;100517.09;;;8.24;75.40
83488;BME280;73424;49.994;8.184;2024-02-21T08:26:03;100507.13;;;8.26;74.67
83488;BME280;73424;49.994;8.184;2024-02-21T08:28:29;100501.78;;;8.26;75.54
83488;BME280;73424;49.994;8.184;2024-02-21T08:30:54;100480.97;;;8.07;75.36
83488;BME280;73424;49.994;8.184;2024-02-21T08:33:19;100511.13;;;8.22;75.16
83488;BME280;73424;49.994;8.184;2024-02-21T08:35:49;100510.16;;;8.15;75.54
83488;BME280;73424;49.994;8.184;2024-02-21T08:38:15;100455.69;;;8.11;74.64
83488;BME280;73424;49.994;8.184;2024-02-21T08:40:40;100470.00;;;8.02;75.14
83488;BME280;73424;49.994;8.184;2024-02-21T08:43:07;100514.25;;;8.26;75.55
83488;BME280;73424;49.994;8.184;2024-02-21T08:45:56;100496.19;;;8.21;75.43
83488;BME280;73424;49.994;8.184;2024-02-21T08:49:28;100510.47;;;8.28;74.59
83488;BME280;73424;49.994;8.184;2024-02-21T08:52:32;100499.66;;;8.38;75.13
83488;BME280;73424;49.994;8.184;2024-02-21T08:54:57;100430.97;;;8.41;74.22
83488;BME280;73424;49.994;8.184;2024-02-21T08:57:22;100452.19;;;8.80;73.23
83488;BME280;73424;49.994;8.184;2024-02-21T08:59:48;100473.69;;;8.70;74.18
83488;BME280;73424;49.994;8.184;2024-02-21T09:02:13;100468.28;;;8.87;72.92
83488;BME280;73424;49.994;8.184;2024-02-21T09:04:41;100454.97;;;8.87;71.98
83488;BME280;73424;49.994;8.184;2024-02-21T09:07:06;100469.34;;;9.23;71.07
83488;BME280;73424;49.994;8.184;2024-02-21T09:09:32;100449.34;;;9.04;71.52
83488;BME280;73424;49.994;8.184;2024-02-21T09:11:58;100466.56;;;9.16;71.06
83488;BME280;73424;49.994;8.184;2024-02-21T09:14:32;100453.63;;;9.28;70.37
83488;BME280;73424;49.994;8.184;2024-02-21T09:16:57;100417.06;;;9.07;70.84
83488;BME280;73424;49.994;8.184;2024-02-21T09:19:22;100449.13;;;9.14;70.90
83488;BME280;73424;49.994;8.184;2024-02-21T09:21:48;100449.19;;;9.20;70.32
83488;BME280;73424;49.994;8.184;2024-02-21T09:24:14;100411.50;;;9.17;70.30
83488;BME280;73424;49.994;8.184;2024-02-21T09:26:39;100452.41;;;9.53;69.22
83488;BME280;73424;49.994;8.184;2024-02-21T09:29:04;100437.75;;;9.72;69.60
83488;BME280;73424;49.994;8.184;2024-02-21T09:31:30;100412.25;;;9.25;70.42
83488;BME280;73424;49.994;8.184;2024-02-21T09:33:55;100441.06;;;9.22;69.62
83488;BME280;73424;49.994;8.184;2024-02-21T09:36:20;100405.09;;;9.26;69.79
83488;BME280;73424;49.994;8.184;2024-02-21T09:38:46;100426.41;;;9.55;69.27
83488;BME280;73424;49.994;8.184;2024-02-21T09:41:15;100440.56;;;9.70;68.62
83488;BME280;73424;49.994;8.184;2024-02-21T09:43:42;100434.28;;;9.34;69.69
83488;BME280;73424;49.994;8.184;2024-02-21T09:46:13;100422.03;;;9.62;68.72
83488;BME280;73424;49.994;8.184;2024-02-21T09:51:17;100387.34;;;9.33;68.92
83488;BME280;73424;49.994;8.184;2024-02-21T09:53:44;100401.59;;;9.40;68.90
83488;BME280;73424;49.994;8.184;2024-02-21T09:56:10;100377.56;;;9.63;68.33
83488;BME280;73424;49.994;8.184;2024-02-21T09:58:36;100381.97;;;9.41;68.79
83488;BME280;73424;49.994;8.184;2024-02-21T10:01:02;100409.91;;;9.74;68.92
83488;BME280;73424;49.994;8.184;2024-02-21T10:03:32;100376.06;;;9.90;68.25
83488;BME280;73424;49.994;8.184;2024-02-21T10:05:59;100397.53;;;10.32;66.22
83488;BME280;73424;49.994;8.184;2024-02-21T10:08:26;100407.44;;;10.38;66.54
83488;BME280;73424;49.994;8.184;2024-02-21T10:10:52;100404.38;;;10.20;66.34
83488;BME280;73424;49.994;8.184;2024-02-21T10:13:28;100400.75;;;10.42;65.45
83488;BME280;73424;49.994;8.184;2024-02-21T10:16:06;100357.44;;;9.90;65.77
83488;BME280;73424;49.994;8.184;2024-02-21T10:18:33;100395.53;;;10.05;66.77
83488;BME280;73424;49.994;8.184;2024-02-21T10:21:03;100392.19;;;10.32;65.35
83488;BME280;73424;49.994;8.184;2024-02-21T10:23:28;100386.03;;;10.31;65.48
83488;BME280;73424;49.994;8.184;2024-02-21T10:25:54;100384.28;;;10.60;64.34
83488;BME280;73424;49.994;8.184;2024-02-21T10:28:19;100358.72;;;9.79;67.00
83488;BME280;73424;49.994;8.184;2024-02-21T10:30:52;100374.97;;;9.99;66.79
83488;BME280;73424;49.994;8.184;2024-02-21T10:33:18;100363.00;;;9.95;67.67
83488;BME280;73424;49.994;8.184;2024-02-21T10:35:48;100363.66;;;10.47;66.69
83488;BME280;73424;49.994;8.184;2024-02-21T10:38:15;100356.59;;;10.40;66.03
83488;BME280;73424;49.994;8.184;2024-02-21T10:40:40;100361.97;;;10.46;66.07
83488;BME280;73424;49.994;8.184;2024-02-21T10:43:11;100355.13;;;10.58;65.59
83488;BME280;73424;49.994;8.184;2024-02-21T10:45:38;100341.16;;;10.56;65.78
83488;BME280;73424;49.994;8.184;2024-02-21T10:48:14;100352.13;;;10.89;65.07
83488;BME280;73424;49.994;8.184;2024-02-21T10:56:33;100341.13;;;10.99;65.27
83488;BME280;73424;49.994;8.184;2024-02-21T10:59:04;100331.41;;;11.53;63.86
83488;BME280;73424;49.994;8.184;2024-02-21T11:01:30;100308.19;;;11.19;64.05
83488;BME280;73424;49.994;8.184;2024-02-21T11:04:08;100320.97;;;11.58;64.09
83488;BME280;73424;49.994;8.184;2024-02-21T11:06:35;100308.59;;;11.51;62.97
83488;BME280;73424;49.994;8.184;2024-02-21T11:09:04;100329.97;;;11.51;62.10
83488;BME280;73424;49.994;8.184;2024-02-21T11:11:34;100305.78;;;10.69;65.27
83488;BME280;73424;49.994;8.184;2024-02-21T11:14:06;100317.16;;;11.39;63.62
83488;BME280;73424;49.994;8.184;2024-02-21T11:16:36;100314.63;;;11.25;64.69
83488;BME280;73424;49.994;8.184;2024-02-21T11:19:05;100308.53;;;11.37;63.77
83488;BME280;73424;49.994;8.184;2024-02-21T11:21:34;100296.53;;;11.61;62.98
83488;BME280;73424;49.994;8.184;2024-02-21T11:24:01;100238.63;;;10.65;63.80
83488;BME280;73424;49.994;8.184;2024-02-21T11:26:28;100271.00;;;11.18;63.97
83488;BME280;73424;49.994;8.184;2024-02-21T11:29:01;100289.22;;;11.42;62.63
83488;BME280;73424;49.994;8.184;2024-02-21T11:31:41;100279.00;;;11.52;62.96
83488;BME280;73424;49.994;8.184;2024-02-21T11:34:10;100277.81;;;11.61;62.92
83488;BME280;73424;49.994;8.184;2024-02-21T11:36:45;100280.75;;;10.98;64.67
83488;BME280;73424;49.994;8.184;2024-02-21T11:39:11;100230.44;;;11.01;63.59
83488;BME280;73424;49.994;8.184;2024-02-21T11:41:36;100270.34;;;11.09;64.97
83488;BME280;73424;49.994;8.184;2024-02-21T11:44:01;100255.13;;;11.37;64.36
83488;BME280;73424;49.994;8.184;2024-02-21T11:46:27;100184.47;;;11.06;63.99
83488;BME280;73424;49.994;8.184;2024-02-21T11:48:52;100168.16;;;10.87;63.72
83488;BME280;73424;49.994;8.184;2024-02-21T11:51:22;100211.94;;;10.93;64.09
83488;BME280;73424;49.994;8.184;2024-02-21T11:53:50;100190.03;;;11.11;64.73
83488;BME280;73424;49.994;8.184;2024-02-21T11:56:15;100188.16;;;11.52;64.03
83488;BME280;73424;49.994;8.184;2024-02-21T11:58:40;100209.72;;;12.18;62.10
83488;BME280;73424;49.994;8.184;2024-02-21T12:01:05;100188.72;;;12.15;61.55
83488;BME280;73424;49.994;8.184;2024-02-21T12:03:32;100186.72;;;11.56;63.12
83488;BME280;73424;49.994;8.184;2024-02-21T12:06:01;100156.66;;;11.41;63.18
83488;BME280;73424;49.994;8.184;2024-02-21T12:08:40;100199.00;;;12.05;63.72
83488;BME280;73424;49.994;8.184;2024-02-21T12:11:16;100197.16;;;12.12;63.00
83488;BME280;73424;49.994;8.184;2024-02-21T12:13:41;100192.44;;;12.33;62.80
83488;BME280;73424;49.994;8.184;2024-02-21T12:16:06;100184.41;;;12.14;63.25
83488;BME280;73424;49.994;8.184;2024-02-21T12:18:32;100145.03;;;11.62;64.13
83488;BME280;73424;49.994;8.184;2024-02-21T12:20:58;100136.78;;;11.43;63.91
83488;BME280;73424;49.994;8.184;2024-02-21T12:23:26;100108.03;;;11.52;63.83
83488;BME280;73424;49.994;8.184;2024-02-21T12:25:52;100160.44;;;11.66;64.61
83488;BME280;73424;49.994;8.184;2024-02-21T12:28:19;100156.59;;;11.75;64.38
83488;BME280;73424;49.994;8.184;2024-02-21T12:30:44;100142.09;;;11.50;64.51
83488;BME280;73424;49.994;8.184;2024-02-21T12:33:10;100147.47;;;11.57;64.75
83488;BME280;73424;49.994;8.184;2024-02-21T12:35:35;100112.47;;;11.32;64.94
83488;BME280;73424;49.994;8.184;2024-02-21T12:38:01;100080.06;;;11.61;64.51
83488;BME280;73424;49.994;8.184;2024-02-21T12:40:26;100092.88;;;11.79;63.58
83488;BME280;73424;49.994;8.184;2024-02-21T12:42:57;100078.00;;;11.63;64.07
83488;BME280;73424;49.994;8.184;2024-02-21T12:45:23;100106.44;;;12.04;63.75
83488;BME280;73424;49.994;8.184;2024-02-21T12:47:48;100075.31;;;11.50;64.03
83488;BME280;73424;49.994;8.184;2024-02-21T12:50:13;100098.22;;;11.79;63.92
83488;BME280;73424;49.994;8.184;2024-02-21T12:52:40;100116.72;;;11.93;65.04
83488;BME280;73424;49.994;8.184;2024-02-21T12:55:06;100102.22;;;11.35;65.56
83488;BME280;73424;49.994;8.184;2024-02-21T12:57:31;100097.38;;;11.72;65.24
83488;BME280;73424;49.994;8.184;2024-02-21T12:59:56;100061.22;;;11.95;64.60
83488;BME280;73424;49.994;8.184;2024-02-21T13:02:21;100071.44;;;12.18;64.66
83488;BME280;73424;49.994;8.184;2024-02-21T13:04:47;100026.66;;;11.87;64.47